createdAt,value
2018-09-06T00:00:00.707Z,14.43
2018-09-06T00:02:29.799Z,12.70
2018-09-06T00:04:58.978Z,14.10
2018-09-06T00:07:28.174Z,14.63
2018-09-06T00:09:57.410Z,15.00
2018-09-06T00:12:26.510Z,14.77
2018-09-06T00:14:55.610Z,16.93
2018-09-06T00:17:24.726Z,12.83
2018-09-06T00:19:53.805Z,15.43
2018-09-06T00:22:22.910Z,15.00
2018-09-06T00:24:52.064Z,15.87
2018-09-06T00:27:21.105Z,15.13
2018-09-06T00:29:50.129Z,13.70
2018-09-06T00:32:19.532Z,14.10
2018-09-06T00:34:48.593Z,12.87
2018-09-06T00:37:17.587Z,13.53
2018-09-06T00:39:46.644Z,13.00
2018-09-06T00:42:15.711Z,13.27
2018-09-06T00:44:44.938Z,12.60
2018-09-06T00:47:14.060Z,15.77
2018-09-06T00:49:43.082Z,13.33
2018-09-06T00:52:12.221Z,17.40
2018-09-06T00:54:41.328Z,17.47
2018-09-06T00:57:10.334Z,15.67
2018-09-06T00:59:40.369Z,16.17
2018-09-06T01:02:09.395Z,14.30
2018-09-06T01:04:38.488Z,15.33
2018-09-06T01:07:07.641Z,16.17
2018-09-06T01:09:36.742Z,14.40
2018-09-06T01:12:05.883Z,14.10
2018-09-06T01:14:36.301Z,14.83
2018-09-06T01:17:05.437Z,13.63
2018-09-06T01:19:34.594Z,15.77
2018-09-06T01:22:03.669Z,13.17
2018-09-06T01:24:32.704Z,14.87
2018-09-06T01:27:01.768Z,14.30
2018-09-06T01:29:30.793Z,15.07
2018-09-06T01:32:01.684Z,12.80
2018-09-06T01:34:31.834Z,13.80
2018-09-06T01:37:01.028Z,14.67
2018-09-06T01:39:30.050Z,15.67
2018-09-06T01:41:59.125Z,13.87
2018-09-06T01:44:28.173Z,13.83
2018-09-06T01:46:57.301Z,15.40
2018-09-06T01:49:26.417Z,16.87
2018-09-06T01:51:55.490Z,15.07
2018-09-06T01:54:24.563Z,15.07
2018-09-06T01:56:53.618Z,15.00
2018-09-06T01:59:22.792Z,14.53
2018-09-06T02:01:51.809Z,13.40
2018-09-06T02:04:21.012Z,15.90
2018-09-06T02:06:50.088Z,13.37
2018-09-06T02:09:19.122Z,14.07
2018-09-06T02:11:48.200Z,13.00
2018-09-06T02:14:17.324Z,13.90
2018-09-06T02:16:46.490Z,15.37
2018-09-06T02:19:15.582Z,13.20
2018-09-06T02:21:44.733Z,13.30
2018-09-06T02:24:13.820Z,13.73
2018-09-06T02:26:43.049Z,15.17
2018-09-06T02:29:12.185Z,13.20
2018-09-06T02:31:41.256Z,14.73
2018-09-06T02:34:10.275Z,12.77
2018-09-06T02:36:39.352Z,14.97
2018-09-06T02:39:09.728Z,13.40
2018-09-06T02:41:38.971Z,13.83
2018-09-06T02:44:08.564Z,13.27
2018-09-06T02:46:37.795Z,14.83
2018-09-06T02:49:06.865Z,13.40
2018-09-06T02:51:35.966Z,12.97
2018-09-06T02:54:05.043Z,13.87
2018-09-06T02:56:34.146Z,12.27
2018-09-06T02:59:03.278Z,13.77
2018-09-06T03:01:32.359Z,16.30
2018-09-06T03:04:01.519Z,13.10
2018-09-06T03:06:30.571Z,15.83
2018-09-06T03:08:59.597Z,13.03
2018-09-06T03:11:33.866Z,13.80
2018-09-06T03:14:03.040Z,14.13
2018-09-06T03:16:32.181Z,15.07
2018-09-06T03:19:01.253Z,14.40
2018-09-06T03:21:30.274Z,16.20
2018-09-06T03:23:59.364Z,12.60
2018-09-06T03:26:28.443Z,14.07
2018-09-06T03:28:57.570Z,13.17
2018-09-06T03:31:26.633Z,14.17
2018-09-06T03:33:55.819Z,15.47
2018-09-06T03:36:24.889Z,14.03
2018-09-06T03:38:53.982Z,14.57
2018-09-06T03:41:23.093Z,13.00
2018-09-06T03:43:52.218Z,13.43
2018-09-06T03:46:21.390Z,14.37
2018-09-06T03:48:50.497Z,15.37
2018-09-06T03:51:19.600Z,15.80
2018-09-06T03:53:48.653Z,13.97
2018-09-06T03:56:17.825Z,15.30
2018-09-06T03:58:46.985Z,15.10
2018-09-06T04:01:16.104Z,13.40
2018-09-06T04:03:45.136Z,13.30
2018-09-06T04:06:14.269Z,15.17
2018-09-06T04:08:45.617Z,13.23
2018-09-06T04:11:14.785Z,13.77
2018-09-06T04:13:44.285Z,17.37
2018-09-06T04:16:13.778Z,15.97
2018-09-06T04:18:42.893Z,15.50
2018-09-06T04:21:11.949Z,14.63
2018-09-06T04:23:41.137Z,16.27
2018-09-06T04:26:10.280Z,15.27
2018-09-06T04:28:39.459Z,14.53
2018-09-06T04:31:09.262Z,13.70
2018-09-06T04:33:46.580Z,13.97
2018-09-06T04:36:15.703Z,14.13
2018-09-06T04:38:44.805Z,15.93
2018-09-06T04:41:13.916Z,15.17
2018-09-06T04:43:43.554Z,13.53
2018-09-06T04:46:13.557Z,13.40
2018-09-06T04:48:42.695Z,15.17
2018-09-06T04:51:11.846Z,13.63
2018-09-06T04:53:40.893Z,14.80
2018-09-06T04:56:10.015Z,15.17
2018-09-06T04:58:39.272Z,13.87
2018-09-06T05:01:08.641Z,14.50
2018-09-06T05:03:37.689Z,15.03
2018-09-06T05:06:06.789Z,16.93
2018-09-06T05:08:35.872Z,14.83
2018-09-06T05:11:04.949Z,17.93
2018-09-06T05:13:34.120Z,15.03
2018-09-06T05:16:03.420Z,16.20
2018-09-06T05:18:32.625Z,17.73
2018-09-06T05:21:01.765Z,15.23
2018-09-06T05:23:30.857Z,18.77
2018-09-06T05:25:59.911Z,15.47
2018-09-06T05:28:28.995Z,18.63
2018-09-06T05:30:58.114Z,16.20
2018-09-06T05:33:27.238Z,16.03
2018-09-06T05:35:56.650Z,17.17
2018-09-06T05:38:25.941Z,19.47
2018-09-06T05:40:55.081Z,19.70
2018-09-06T05:43:26.034Z,15.43
2018-09-06T05:45:55.117Z,17.43
2018-09-06T05:48:24.185Z,19.23
2018-09-06T05:50:53.277Z,20.57
2018-09-06T05:53:22.411Z,16.37
2018-09-06T05:55:51.553Z,18.63
2018-09-06T05:58:20.797Z,18.67
2018-09-06T06:00:50.501Z,19.33
2018-09-06T06:03:19.638Z,20.00
2018-09-06T06:05:48.735Z,20.77
2018-09-06T06:08:28.718Z,20.03
2018-09-06T06:10:57.849Z,19.90
2018-09-06T06:13:27.040Z,22.03
2018-09-06T06:15:56.179Z,16.93
2018-09-06T06:18:25.290Z,15.47
2018-09-06T06:20:54.414Z,18.30
2018-09-06T06:23:23.474Z,23.47
2018-09-06T06:25:52.723Z,21.03
2018-09-06T06:28:21.837Z,25.37
2018-09-06T06:30:50.970Z,18.93
2018-09-06T06:33:20.023Z,23.50
2018-09-06T06:35:49.126Z,24.57
2018-09-06T06:38:18.225Z,24.47
2018-09-06T06:40:47.313Z,18.27
2018-09-06T06:43:16.493Z,15.07
2018-09-06T06:45:45.576Z,16.43
2018-09-06T06:48:14.731Z,16.23
2018-09-06T06:50:43.846Z,17.60
2018-09-06T06:53:12.954Z,37.77
2018-09-06T06:55:42.060Z,39.17
2018-09-06T06:58:11.177Z,34.67
2018-09-06T07:00:41.426Z,30.63
2018-09-06T07:03:11.969Z,24.43
2018-09-06T07:05:42.246Z,22.93
2018-09-06T07:08:11.951Z,21.90
2018-09-06T07:10:41.054Z,22.23
2018-09-06T07:13:10.373Z,19.57
2018-09-06T07:15:39.409Z,19.90
2018-09-06T07:18:08.682Z,20.17
2018-09-06T07:20:37.757Z,17.83
2018-09-06T07:23:06.764Z,16.90
2018-09-06T07:25:35.800Z,15.77
2018-09-06T07:28:04.780Z,16.93
2018-09-06T07:30:33.823Z,13.53
2018-09-06T07:33:02.801Z,13.80
2018-09-06T07:35:31.820Z,12.33
2018-09-06T07:38:00.789Z,15.70
2018-09-06T07:40:29.805Z,23.10
2018-09-06T07:42:58.839Z,19.23
2018-09-06T07:45:27.840Z,22.43
2018-09-06T07:47:56.852Z,25.13
2018-09-06T07:50:25.856Z,23.47
2018-09-06T07:52:54.936Z,19.77
2018-09-06T07:55:23.932Z,17.27
2018-09-06T07:57:53.017Z,18.00
2018-09-06T08:00:22.033Z,16.10
2018-09-06T08:02:51.092Z,17.73
2018-09-06T08:05:20.133Z,18.60
2018-09-06T08:07:49.227Z,22.23
2018-09-06T08:10:18.369Z,35.83
2018-09-06T08:12:47.481Z,27.30
2018-09-06T08:15:16.599Z,28.37
2018-09-06T08:17:45.721Z,18.63
2018-09-06T08:20:15.057Z,18.10
2018-09-06T08:22:44.259Z,14.17
2018-09-06T08:25:13.426Z,19.03
2018-09-06T08:27:42.542Z,19.30
2018-09-06T08:30:11.757Z,17.00
2018-09-06T08:32:40.873Z,15.10
2018-09-06T08:35:10.018Z,19.07
2018-09-06T08:37:39.529Z,13.43
2018-09-06T08:40:09.151Z,13.33
2018-09-06T08:42:38.246Z,12.87
2018-09-06T08:45:07.429Z,12.53
2018-09-06T08:47:36.760Z,13.03
2018-09-06T08:50:05.857Z,12.53
2018-09-06T08:52:35.551Z,12.87
2018-09-06T08:55:04.613Z,12.87
2018-09-06T08:57:33.694Z,11.73
2018-09-06T09:00:03.139Z,12.07
2018-09-06T09:02:32.483Z,12.00
2018-09-06T09:05:01.664Z,11.87
2018-09-06T09:07:30.908Z,12.83
2018-09-06T09:10:00.024Z,11.67
2018-09-06T09:12:30.979Z,11.90
2018-09-06T09:15:01.045Z,13.23
2018-09-06T09:17:31.180Z,12.07
2018-09-06T09:20:00.980Z,13.10
2018-09-06T09:22:36.809Z,13.00
2018-09-06T09:25:06.845Z,12.10
2018-09-06T09:27:36.585Z,12.73
2018-09-06T09:30:06.248Z,12.47
2018-09-06T09:32:42.677Z,11.40
2018-09-06T09:35:12.508Z,11.60
2018-09-06T09:37:42.239Z,11.27
2018-09-06T09:40:11.686Z,10.80
2018-09-06T09:42:41.424Z,12.43
2018-09-06T09:45:10.774Z,11.73
2018-09-06T09:47:40.299Z,10.63
2018-09-06T09:52:39.874Z,11.20
2018-09-06T09:55:09.306Z,9.83
2018-09-06T09:57:38.929Z,11.80
2018-09-06T10:00:09.608Z,13.53
2018-09-06T10:02:44.076Z,11.10
2018-09-06T10:05:19.328Z,10.07
2018-09-06T10:07:53.656Z,10.63
2018-09-06T10:10:23.054Z,10.80
2018-09-06T10:12:52.402Z,9.60
2018-09-06T10:15:21.629Z,12.47
2018-09-06T10:17:50.985Z,9.78
2018-09-06T10:20:20.619Z,9.80
2018-09-06T10:22:50.027Z,11.30
2018-09-06T10:25:19.528Z,9.53
2018-09-06T10:27:49.062Z,9.70
2018-09-06T10:30:19.487Z,9.48
2018-09-06T10:32:49.812Z,10.08
2018-09-06T10:35:19.773Z,9.80
2018-09-06T10:37:49.644Z,9.68
2018-09-06T10:40:19.144Z,9.53
2018-09-06T10:42:48.738Z,9.70
2018-09-06T10:45:18.375Z,10.65
2018-09-06T10:47:47.949Z,9.88
2018-09-06T10:50:18.468Z,9.50
2018-09-06T10:52:47.918Z,10.03
2018-09-06T10:55:17.500Z,9.33
2018-09-06T10:57:47.350Z,9.78
2018-09-06T11:00:18.659Z,9.65
2018-09-06T11:02:48.033Z,9.85
2018-09-06T11:05:17.738Z,10.45
2018-09-06T11:07:47.063Z,9.60
2018-09-06T11:10:16.462Z,10.60
2018-09-06T11:12:45.707Z,11.33
2018-09-06T11:15:14.862Z,10.18
2018-09-06T11:17:44.793Z,11.33
2018-09-06T11:20:14.025Z,10.50
2018-09-06T11:22:43.546Z,11.78
2018-09-06T11:25:12.711Z,9.63
2018-09-06T11:27:43.168Z,10.13
2018-09-06T11:30:12.743Z,9.70
2018-09-06T11:32:42.091Z,10.28
2018-09-06T11:35:11.623Z,10.58
2018-09-06T11:37:40.868Z,10.93
2018-09-06T11:40:10.126Z,11.18
2018-09-06T11:42:39.451Z,10.05
2018-09-06T11:45:08.785Z,10.80
2018-09-06T11:47:38.044Z,10.85
2018-09-06T11:50:07.244Z,12.55
2018-09-06T11:52:36.421Z,12.68
2018-09-06T11:55:05.642Z,11.97
2018-09-06T11:57:34.817Z,11.15
2018-09-06T12:00:04.061Z,10.58
2018-09-06T12:02:33.290Z,10.55
2018-09-06T12:05:02.580Z,12.93
2018-09-06T12:07:31.806Z,12.05
2018-09-06T12:10:01.006Z,11.15
2018-09-06T12:12:30.230Z,12.10
2018-09-06T12:14:59.323Z,11.08
2018-09-06T12:17:28.503Z,12.13
2018-09-06T12:19:57.608Z,12.47
2018-09-06T12:22:27.031Z,11.78
2018-09-06T12:24:56.336Z,12.28
2018-09-06T12:27:25.734Z,13.83
2018-09-06T12:29:54.901Z,12.95
2018-09-06T12:32:24.109Z,12.73
2018-09-06T12:34:53.354Z,11.33
2018-09-06T12:37:22.679Z,11.30
2018-09-06T12:39:52.032Z,11.83
2018-09-06T12:42:21.396Z,11.85
2018-09-06T12:44:50.561Z,12.90
2018-09-06T12:47:20.060Z,12.30
2018-09-06T12:49:49.414Z,12.03
2018-09-06T12:52:18.703Z,12.47
2018-09-06T12:54:48.040Z,11.40
2018-09-06T12:57:17.333Z,12.25
2018-09-06T12:59:46.600Z,11.78
2018-09-06T13:02:15.834Z,12.55
2018-09-06T13:04:45.107Z,11.57
2018-09-06T13:07:14.371Z,11.83
2018-09-06T13:09:43.658Z,11.73
2018-09-06T13:12:13.079Z,11.65
2018-09-06T13:14:42.306Z,11.22
2018-09-06T13:17:11.631Z,11.68
2018-09-06T13:19:41.922Z,11.30
2018-09-06T13:22:11.256Z,11.75
2018-09-06T13:24:40.526Z,11.70
2018-09-06T13:27:09.942Z,12.05
2018-09-06T13:29:39.821Z,11.60
2018-09-06T13:32:09.152Z,11.15
2018-09-06T13:34:38.535Z,11.45
2018-09-06T13:37:08.308Z,10.98
2018-09-06T13:39:37.750Z,11.08
2018-09-06T13:42:07.338Z,11.57
2018-09-06T13:44:36.677Z,11.08
2018-09-06T13:47:06.204Z,11.63
2018-09-06T13:49:36.158Z,12.28
2018-09-06T13:52:05.779Z,12.73
2018-09-06T13:54:35.035Z,10.90
2018-09-06T13:57:04.704Z,10.28
2018-09-06T13:59:34.018Z,10.58
2018-09-06T14:02:03.856Z,11.80
2018-09-06T14:04:33.287Z,11.38
2018-09-06T14:07:02.680Z,11.05
2018-09-06T14:09:32.658Z,11.35
2018-09-06T14:12:03.613Z,11.08
2018-09-06T14:14:33.021Z,10.85
2018-09-06T14:17:02.984Z,11.95
2018-09-06T14:19:33.076Z,11.20
2018-09-06T14:22:02.583Z,11.15
2018-09-06T14:24:31.930Z,10.98
2018-09-06T14:27:01.489Z,10.90
2018-09-06T14:29:30.922Z,12.03
2018-09-06T14:32:00.281Z,11.22
2018-09-06T14:34:29.851Z,11.35
2018-09-06T14:36:59.255Z,10.72
2018-09-06T14:39:28.805Z,10.82
2018-09-06T14:41:58.288Z,12.75
2018-09-06T14:44:29.020Z,10.85
2018-09-06T14:46:58.632Z,10.95
2018-09-06T14:49:28.937Z,10.68
2018-09-06T14:51:58.359Z,14.23
2018-09-06T14:54:27.976Z,12.18
2018-09-06T14:56:57.347Z,11.20
2018-09-06T14:59:26.841Z,10.88
2018-09-06T15:01:56.300Z,15.20
2018-09-06T15:04:26.823Z,12.33
2018-09-06T15:06:56.225Z,11.18
2018-09-06T15:09:25.671Z,11.70
2018-09-06T15:11:55.147Z,10.88
2018-09-06T15:14:24.634Z,11.30
2018-09-06T15:16:53.989Z,11.25
2018-09-06T15:19:23.444Z,14.95
2018-09-06T15:21:52.736Z,12.60
2018-09-06T15:24:22.033Z,13.60
2018-09-06T15:26:51.458Z,10.90
2018-09-06T15:29:20.705Z,11.03
2018-09-06T15:31:50.004Z,11.22
2018-09-06T15:34:19.386Z,10.75
2018-09-06T15:36:48.701Z,12.73
2018-09-06T15:39:17.996Z,11.45
2018-09-06T15:41:47.360Z,10.72
2018-09-06T15:44:16.817Z,12.18
2018-09-06T15:46:47.097Z,11.12
2018-09-06T15:49:16.469Z,13.25
2018-09-06T15:51:46.061Z,11.97
2018-09-06T15:54:15.792Z,14.78
2018-09-06T15:56:45.044Z,12.40
2018-09-06T15:59:14.927Z,13.93
2018-09-06T16:01:44.033Z,12.07
2018-09-06T16:04:13.096Z,14.90
2018-09-06T16:06:42.138Z,12.30
2018-09-06T16:09:11.228Z,11.78
2018-09-06T16:11:40.315Z,12.05
2018-09-06T16:14:09.601Z,14.60
2018-09-06T16:16:38.652Z,13.95
2018-09-06T16:19:07.973Z,12.68
2018-09-06T16:21:37.065Z,13.08
2018-09-06T16:24:06.254Z,12.63
2018-09-06T16:26:35.904Z,16.05
2018-09-06T16:29:05.994Z,14.80
2018-09-06T16:31:35.098Z,12.93
2018-09-06T16:34:04.422Z,13.65
2018-09-06T16:36:33.513Z,14.07
2018-09-06T16:39:02.605Z,12.53
2018-09-06T16:41:31.681Z,13.80
2018-09-06T16:44:02.093Z,12.68
2018-09-06T16:46:31.981Z,12.95
2018-09-06T16:49:01.170Z,13.95
2018-09-06T16:51:30.218Z,14.20
2018-09-06T16:53:59.290Z,13.45
2018-09-06T16:56:28.385Z,14.13
2018-09-06T16:58:57.470Z,13.58
2018-09-06T17:01:26.640Z,14.10
2018-09-06T17:03:55.845Z,14.83
2018-09-06T17:06:24.913Z,17.12
2018-09-06T17:08:54.056Z,14.43
2018-09-06T17:11:23.124Z,14.13
2018-09-06T17:13:52.177Z,15.60
2018-09-06T17:16:21.265Z,15.68
2018-09-06T17:18:50.308Z,16.00
2018-09-06T17:21:19.397Z,14.80
2018-09-06T17:23:48.417Z,13.70
2018-09-06T17:26:17.655Z,13.45
2018-09-06T17:28:47.209Z,17.50
2018-09-06T17:31:16.377Z,14.00
2018-09-06T17:33:45.465Z,13.43
2018-09-06T17:36:15.517Z,14.80
2018-09-06T17:38:45.441Z,18.75
2018-09-06T17:41:14.966Z,14.43
2018-09-06T17:43:44.165Z,16.77
2018-09-06T17:46:13.276Z,13.53
2018-09-06T17:48:42.430Z,14.20
2018-09-06T17:51:11.550Z,17.63
2018-09-06T17:53:40.665Z,14.70
2018-09-06T17:56:09.767Z,14.10
2018-09-06T17:58:38.872Z,16.07
2018-09-06T18:01:43.088Z,13.57
2018-09-06T18:04:12.435Z,14.30
2018-09-06T18:06:41.651Z,16.30
2018-09-06T18:09:13.257Z,14.10
2018-09-06T18:11:43.494Z,16.43
2018-09-06T18:14:13.245Z,14.97
2018-09-06T18:16:43.592Z,14.03
2018-09-06T18:19:12.731Z,14.17
2018-09-06T18:21:42.624Z,14.43
2018-09-06T18:24:12.760Z,15.60
2018-09-06T18:26:41.945Z,15.87
2018-09-06T18:29:11.121Z,16.47
2018-09-06T18:31:40.412Z,16.07
2018-09-06T18:34:09.594Z,17.30
2018-09-06T18:36:38.838Z,16.93
2018-09-06T18:39:08.589Z,17.27
2018-09-06T18:41:37.781Z,16.67
2018-09-06T18:44:07.772Z,16.63
2018-09-06T18:46:36.852Z,15.27
2018-09-06T18:49:05.925Z,18.07
2018-09-06T18:51:35.594Z,16.80
2018-09-06T18:54:04.685Z,17.03
2018-09-06T18:56:33.978Z,17.97
2018-09-06T18:59:03.253Z,21.93
2018-09-06T19:01:32.683Z,16.87
2018-09-06T19:04:03.134Z,19.00
2018-09-06T19:06:32.333Z,17.13
2018-09-06T19:09:01.431Z,15.77
2018-09-06T19:11:31.190Z,18.83
2018-09-06T19:14:00.442Z,15.97
2018-09-06T19:16:29.623Z,19.23
2018-09-06T19:18:59.063Z,16.40
2018-09-06T19:21:28.934Z,16.20
2018-09-06T19:23:58.045Z,15.23
2018-09-06T19:26:27.553Z,16.50
2018-09-06T19:28:56.739Z,19.93
2018-09-06T19:31:25.878Z,16.30
2018-09-06T19:33:55.141Z,16.70
2018-09-06T19:36:24.237Z,15.83
2018-09-06T19:38:53.355Z,16.77
2018-09-06T19:41:22.870Z,18.10
2018-09-06T19:43:52.319Z,16.27
2018-09-06T19:46:21.603Z,15.83
2018-09-06T19:48:51.039Z,15.57
2018-09-06T19:51:20.136Z,15.53
2018-09-06T19:53:50.429Z,15.73
2018-09-06T19:56:19.517Z,18.33
2018-09-06T19:58:48.662Z,16.83
2018-09-06T20:01:18.033Z,15.80
2018-09-06T20:03:48.460Z,15.70
2018-09-06T20:06:18.050Z,16.20
2018-09-06T20:08:48.798Z,16.23
2018-09-06T20:11:17.930Z,17.47
2018-09-06T20:13:47.078Z,16.73
2018-09-06T20:16:16.278Z,17.93
2018-09-06T20:18:45.414Z,18.10
2018-09-06T20:21:15.727Z,16.17
2018-09-06T20:23:45.820Z,16.30
2018-09-06T20:26:15.123Z,17.87
2018-09-06T20:28:44.174Z,15.83
2018-09-06T20:31:13.334Z,17.70
2018-09-06T20:33:42.981Z,15.93
2018-09-06T20:36:13.090Z,15.47
2018-09-06T20:38:42.361Z,15.13
2018-09-06T20:41:11.492Z,15.20
2018-09-06T20:43:40.674Z,16.37
2018-09-06T20:46:09.838Z,14.97
2018-09-06T20:48:38.999Z,15.77
2018-09-06T20:51:08.298Z,18.63
2018-09-06T20:53:38.279Z,16.33
2018-09-06T20:56:07.469Z,15.93
2018-09-06T20:58:36.655Z,15.00
2018-09-06T21:01:05.918Z,14.30
2018-09-06T21:03:35.313Z,12.93
2018-09-06T21:06:05.036Z,15.33
2018-09-06T21:08:34.237Z,9.53
2018-09-06T21:11:03.271Z,9.60
2018-09-06T21:13:32.590Z,8.80
2018-09-06T21:16:01.667Z,8.37
2018-09-06T21:18:30.758Z,8.90
2018-09-06T21:21:00.030Z,9.20
2018-09-06T21:23:29.408Z,9.77
2018-09-06T21:25:58.736Z,10.10
2018-09-06T21:28:28.210Z,10.20
2018-09-06T21:30:57.489Z,10.20
2018-09-06T21:33:26.653Z,13.60
2018-09-06T21:35:55.697Z,11.17
2018-09-06T21:38:24.849Z,10.03
2018-09-06T21:40:53.990Z,9.40
2018-09-06T21:43:23.320Z,10.30
2018-09-06T21:45:54.995Z,12.33
2018-09-06T21:48:24.381Z,15.27
2018-09-06T21:50:53.876Z,14.30
2018-09-06T21:55:01.629Z,15.03
2018-09-06T21:57:30.903Z,14.63
2018-09-06T21:59:59.982Z,14.37
2018-09-06T22:02:34.486Z,15.17
2018-09-06T22:05:03.633Z,14.07
2018-09-06T22:07:32.794Z,14.00
2018-09-06T22:10:01.906Z,12.73
2018-09-06T22:12:31.013Z,11.97
2018-09-06T22:15:00.070Z,11.23
2018-09-06T22:17:29.160Z,11.57
2018-09-06T22:19:58.291Z,13.63
2018-09-06T22:22:27.395Z,12.00
2018-09-06T22:24:56.514Z,11.17
2018-09-06T22:27:25.631Z,11.23
2018-09-06T22:29:54.680Z,12.70
2018-09-06T22:32:23.768Z,11.90
2018-09-06T22:34:52.870Z,11.90
2018-09-06T22:37:21.996Z,11.53
2018-09-06T22:39:51.206Z,12.13
2018-09-06T22:42:20.306Z,11.73
2018-09-06T22:44:49.433Z,12.83
2018-09-06T22:47:18.810Z,12.17
2018-09-06T22:49:48.917Z,12.43
2018-09-06T22:52:18.109Z,15.73
2018-09-06T22:54:47.180Z,11.87
2018-09-06T22:57:16.356Z,10.97
2018-09-06T22:59:46.402Z,12.20
2018-09-06T23:02:15.532Z,12.57
2018-09-06T23:04:44.643Z,12.30
2018-09-06T23:07:13.824Z,12.13
2018-09-06T23:09:42.878Z,12.63
2018-09-06T23:12:11.978Z,12.23
2018-09-06T23:14:41.141Z,14.33
2018-09-06T23:17:10.230Z,13.23
2018-09-06T23:19:39.361Z,16.07
2018-09-06T23:22:08.393Z,16.00
2018-09-06T23:24:37.609Z,13.90
2018-09-06T23:27:06.731Z,12.23
2018-09-06T23:29:35.813Z,12.17
2018-09-06T23:32:04.904Z,12.57
2018-09-06T23:34:35.806Z,13.40
2018-09-06T23:37:05.688Z,11.93
2018-09-06T23:39:35.146Z,11.40
2018-09-06T23:42:04.328Z,12.37
2018-09-06T23:44:33.418Z,12.60
2018-09-06T23:47:02.587Z,12.07
2018-09-06T23:49:31.657Z,12.20
2018-09-06T23:52:00.719Z,11.77
2018-09-06T23:54:29.813Z,11.67
2018-09-06T23:56:58.910Z,13.80
2018-09-06T23:59:28.320Z,11.73
